sensor_id;sensor_type;location;lat;lon;timestamp;temperature;humidity
34927;DHT22;21132;48.308;14.274;2022-12-19T10:41:28;7.60;54.10
34927;DHT22;21132;48.308;14.274;2022-12-19T10:44:02;7.70;53.80
34927;DHT22;21132;48.308;14.274;2022-12-19T10:48:56;7.90;53.20
34927;DHT22;21132;48.308;14.274;2022-12-19T10:51:26;8.00;52.60
34927;DHT22;21132;48.308;14.274;2022-12-19T10:53:54;8.00;52.20
34927;DHT22;21132;48.308;14.274;2022-12-19T10:56:24;8.00;51.80
34927;DHT22;21132;48.308;14.274;2022-12-19T10:58:52;7.90;51.80
34927;DHT22;21132;48.308;14.274;2022-12-19T11:01:39;8.00;52.30
34927;DHT22;21132;48.308;14.274;2022-12-19T11:04:24;8.00;52.10
34927;DHT22;21132;48.308;14.274;2022-12-19T11:07:18;8.00;52.10
34927;DHT22;21132;48.308;14.274;2022-12-19T11:09:44;8.00;52.20
34927;DHT22;21132;48.308;14.274;2022-12-19T11:12:17;8.00;52.10
34927;DHT22;21132;48.308;14.274;2022-12-19T11:17:36;8.10;51.90
34927;DHT22;21132;48.308;14.274;2022-12-19T11:20:22;8.10;51.50
34927;DHT22;21132;48.308;14.274;2022-12-19T11:22:59;8.10;51.00
34927;DHT22;21132;48.308;14.274;2022-12-19T11:25:56;8.10;50.90
34927;DHT22;21132;48.308;14.274;2022-12-19T11:28:31;8.00;50.90
34927;DHT22;21132;48.308;14.274;2022-12-19T11:33:27;8.00;51.40
34927;DHT22;21132;48.308;14.274;2022-12-19T11:35:59;8.00;51.10
34927;DHT22;21132;48.308;14.274;2022-12-19T11:38:44;8.00;50.70
34927;DHT22;21132;48.308;14.274;2022-12-19T11:41:30;8.00;50.60
34927;DHT22;21132;48.308;14.274;2022-12-19T11:44:32;7.90;50.60
34927;DHT22;21132;48.308;14.274;2022-12-19T11:47:16;7.90;51.00
34927;DHT22;21132;48.308;14.274;2022-12-19T11:49:50;7.90;50.60
34927;DHT22;21132;48.308;14.274;2022-12-19T11:54:59;7.90;50.50
34927;DHT22;21132;48.308;14.274;2022-12-19T11:57:27;7.90;50.80
34927;DHT22;21132;48.308;14.274;2022-12-19T11:59:54;7.90;50.80
34927;DHT22;21132;48.308;14.274;2022-12-19T12:22:00;8.40;51.60
34927;DHT22;21132;48.308;14.274;2022-12-19T12:25:03;8.50;50.80
34927;DHT22;21132;48.308;14.274;2022-12-19T12:30:10;8.50;49.90
34927;DHT22;21132;48.308;14.274;2022-12-19T12:33:05;8.50;49.70
34927;DHT22;21132;48.308;14.274;2022-12-19T12:35:38;8.50;49.90
34927;DHT22;21132;48.308;14.274;2022-12-19T12:45:53;8.70;49.90
34927;DHT22;21132;48.308;14.274;2022-12-19T12:48:44;8.70;49.70
34927;DHT22;21132;48.308;14.274;2022-12-19T12:51:12;8.70;49.60
34927;DHT22;21132;48.308;14.274;2022-12-19T12:53:42;8.80;50.10
34927;DHT22;21132;48.308;14.274;2022-12-19T12:56:13;8.90;50.10
34927;DHT22;21132;48.308;14.274;2022-12-19T13:06:40;9.00;49.30
34927;DHT22;21132;48.308;14.274;2022-12-19T13:09:20;9.00;49.40
34927;DHT22;21132;48.308;14.274;2022-12-19T13:14:47;8.90;48.90
34927;DHT22;21132;48.308;14.274;2022-12-19T13:20:51;8.80;49.40
34927;DHT22;21132;48.308;14.274;2022-12-19T13:25:54;8.70;49.30
34927;DHT22;21132;48.308;14.274;2022-12-19T13:36:43;8.40;49.70
34927;DHT22;21132;48.308;14.274;2022-12-19T13:39:29;8.40;49.90
34927;DHT22;21132;48.308;14.274;2022-12-19T13:42:20;8.30;50.10
34927;DHT22;21132;48.308;14.274;2022-12-19T13:45:14;8.30;50.30
34927;DHT22;21132;48.308;14.274;2022-12-19T13:47:43;8.30;50.40
34927;DHT22;21132;48.308;14.274;2022-12-19T13:50:38;8.20;50.40
34927;DHT22;21132;48.308;14.274;2022-12-19T13:53:19;8.10;50.70
34927;DHT22;21132;48.308;14.274;2022-12-19T13:55:48;8.10;50.80
34927;DHT22;21132;48.308;14.274;2022-12-19T13:58:24;8.10;50.90
34927;DHT22;21132;48.308;14.274;2022-12-19T14:00:51;8.10;51.10
34927;DHT22;21132;48.308;14.274;2022-12-19T14:03:23;8.10;51.10
34927;DHT22;21132;48.308;14.274;2022-12-19T14:06:04;8.10;51.10
34927;DHT22;21132;48.308;14.274;2022-12-19T14:08:35;8.00;51.00
34927;DHT22;21132;48.308;14.274;2022-12-19T14:11:08;8.00;51.00
34927;DHT22;21132;48.308;14.274;2022-12-19T14:13:41;8.00;51.10
34927;DHT22;21132;48.308;14.274;2022-12-19T14:16:26;7.90;51.30
34927;DHT22;21132;48.308;14.274;2022-12-19T14:18:55;7.90;51.50
34927;DHT22;21132;48.308;14.274;2022-12-19T14:21:25;7.90;51.60
34927;DHT22;21132;48.308;14.274;2022-12-19T14:24:40;7.90;51.70
34927;DHT22;21132;48.308;14.274;2022-12-19T14:27:05;7.80;51.40
34927;DHT22;21132;48.308;14.274;2022-12-19T14:29:48;7.80;51.40
34927;DHT22;21132;48.308;14.274;2022-12-19T14:32:23;7.70;51.40
34927;DHT22;21132;48.308;14.274;2022-12-19T14:34:49;7.60;51.50
34927;DHT22;21132;48.308;14.274;2022-12-19T14:37:32;7.60;51.60
34927;DHT22;21132;48.308;14.274;2022-12-19T14:40:13;7.50;51.80
34927;DHT22;21132;48.308;14.274;2022-12-19T14:42:43;7.50;51.90
34927;DHT22;21132;48.308;14.274;2022-12-19T14:45:39;7.50;52.60
34927;DHT22;21132;48.308;14.274;2022-12-19T14:48:26;7.40;52.00
34927;DHT22;21132;48.308;14.274;2022-12-19T14:53:35;7.10;52.00
34927;DHT22;21132;48.308;14.274;2022-12-19T14:56:17;7.10;52.20
34927;DHT22;21132;48.308;14.274;2022-12-19T14:58:53;6.90;52.30
34927;DHT22;21132;48.308;14.274;2022-12-19T15:01:26;6.80;52.50
34927;DHT22;21132;48.308;14.274;2022-12-19T15:03:59;6.70;52.70
34927;DHT22;21132;48.308;14.274;2022-12-19T15:06:28;6.60;53.00
34927;DHT22;21132;48.308;14.274;2022-12-19T15:09:02;6.50;53.30
34927;DHT22;21132;48.308;14.274;2022-12-19T15:11:33;6.30;53.50
34927;DHT22;21132;48.308;14.274;2022-12-19T15:14:28;6.20;53.80
34927;DHT22;21132;48.308;14.274;2022-12-19T15:17:09;6.10;54.10
34927;DHT22;21132;48.308;14.274;2022-12-19T15:19:39;6.00;54.20
34927;DHT22;21132;48.308;14.274;2022-12-19T15:22:04;5.90;55.00
34927;DHT22;21132;48.308;14.274;2022-12-19T15:24:30;5.80;54.50
34927;DHT22;21132;48.308;14.274;2022-12-19T15:26:56;5.80;55.00
34927;DHT22;21132;48.308;14.274;2022-12-19T15:29:24;5.80;54.90
34927;DHT22;21132;48.308;14.274;2022-12-19T15:31:51;5.70;55.00
34927;DHT22;21132;48.308;14.274;2022-12-19T15:34:25;5.70;55.20
34927;DHT22;21132;48.308;14.274;2022-12-19T15:36:51;5.60;55.40
34927;DHT22;21132;48.308;14.274;2022-12-19T15:39:17;5.70;55.00
34927;DHT22;21132;48.308;14.274;2022-12-19T15:41:45;5.60;55.10
34927;DHT22;21132;48.308;14.274;2022-12-19T15:44:31;5.60;55.40
34927;DHT22;21132;48.308;14.274;2022-12-19T15:46:58;5.50;55.60
34927;DHT22;21132;48.308;14.274;2022-12-19T15:49:24;5.50;55.80
34927;DHT22;21132;48.308;14.274;2022-12-19T15:51:51;5.50;55.90
34927;DHT22;21132;48.308;14.274;2022-12-19T15:54:17;5.50;56.00
34927;DHT22;21132;48.308;14.274;2022-12-19T15:56:52;5.50;56.10
34927;DHT22;21132;48.308;14.274;2022-12-19T15:59:24;5.50;56.20
34927;DHT22;21132;48.308;14.274;2022-12-19T16:01:51;5.50;56.20
34927;DHT22;21132;48.308;14.274;2022-12-19T16:04:17;5.60;56.30
34927;DHT22;21132;48.308;14.274;2022-12-19T16:06:44;5.60;56.40
34927;DHT22;21132;48.308;14.274;2022-12-19T16:09:30;5.60;56.50
34927;DHT22;21132;48.308;14.274;2022-12-19T16:11:57;5.60;56.50
34927;DHT22;21132;48.308;14.274;2022-12-19T16:14:25;5.60;56.50
34927;DHT22;21132;48.308;14.274;2022-12-19T16:16:53;5.50;56.40
34927;DHT22;21132;48.308;14.274;2022-12-19T16:19:28;5.50;56.50
34927;DHT22;21132;48.308;14.274;2022-12-19T16:21:56;5.50;56.60
34927;DHT22;21132;48.308;14.274;2022-12-19T16:24:22;5.50;56.60
34927;DHT22;21132;48.308;14.274;2022-12-19T16:26:55;5.50;56.60
34927;DHT22;21132;48.308;14.274;2022-12-19T16:29:27;5.60;56.70
34927;DHT22;21132;48.308;14.274;2022-12-19T16:31:55;5.60;56.70
34927;DHT22;21132;48.308;14.274;2022-12-19T16:34:24;5.60;56.60
34927;DHT22;21132;48.308;14.274;2022-12-19T16:36:51;5.60;56.70
34927;DHT22;21132;48.308;14.274;2022-12-19T16:39:19;5.60;56.70
34927;DHT22;21132;48.308;14.274;2022-12-19T16:41:45;5.60;56.70
34927;DHT22;21132;48.308;14.274;2022-12-19T16:44:17;5.60;56.80
34927;DHT22;21132;48.308;14.274;2022-12-19T16:46:44;5.60;56.90
34927;DHT22;21132;48.308;14.274;2022-12-19T16:49:16;5.60;56.90
34927;DHT22;21132;48.308;14.274;2022-12-19T16:51:44;5.60;57.00
34927;DHT22;21132;48.308;14.274;2022-12-19T16:54:12;5.60;57.00
34927;DHT22;21132;48.308;14.274;2022-12-19T16:56:41;5.60;57.10
34927;DHT22;21132;48.308;14.274;2022-12-19T16:59:25;5.60;57.10
34927;DHT22;21132;48.308;14.274;2022-12-19T17:01:51;5.60;57.10
34927;DHT22;21132;48.308;14.274;2022-12-19T17:04:20;5.60;57.20
34927;DHT22;21132;48.308;14.274;2022-12-19T17:06:49;5.50;57.20
34927;DHT22;21132;48.308;14.274;2022-12-19T17:09:19;5.50;57.30
34927;DHT22;21132;48.308;14.274;2022-12-19T17:11:57;5.60;57.40
34927;DHT22;21132;48.308;14.274;2022-12-19T17:14:29;5.50;57.40
34927;DHT22;21132;48.308;14.274;2022-12-19T17:16:57;5.50;57.40
34927;DHT22;21132;48.308;14.274;2022-12-19T17:19:33;5.50;57.40
34927;DHT22;21132;48.308;14.274;2022-12-19T17:22:08;5.50;57.50
34927;DHT22;21132;48.308;14.274;2022-12-19T17:24:34;5.50;57.40
34927;DHT22;21132;48.308;14.274;2022-12-19T17:27:00;5.50;57.40
34927;DHT22;21132;48.308;14.274;2022-12-19T17:29:26;5.50;57.30
34927;DHT22;21132;48.308;14.274;2022-12-19T17:31:52;5.50;57.30
34927;DHT22;21132;48.308;14.274;2022-12-19T17:34:27;5.40;57.20
34927;DHT22;21132;48.308;14.274;2022-12-19T17:36:54;5.40;57.20
34927;DHT22;21132;48.308;14.274;2022-12-19T17:39:25;5.40;57.20
34927;DHT22;21132;48.308;14.274;2022-12-19T17:41:51;5.40;57.20
34927;DHT22;21132;48.308;14.274;2022-12-19T17:44:18;5.40;57.20
34927;DHT22;21132;48.308;14.274;2022-12-19T17:46:47;5.40;57.20
34927;DHT22;21132;48.308;14.274;2022-12-19T17:49:26;5.30;57.10
34927;DHT22;21132;48.308;14.274;2022-12-19T17:51:55;5.30;57.10
34927;DHT22;21132;48.308;14.274;2022-12-19T17:54:22;5.30;57.10
34927;DHT22;21132;48.308;14.274;2022-12-19T17:56:51;5.30;57.20
34927;DHT22;21132;48.308;14.274;2022-12-19T17:59:18;5.30;57.20
34927;DHT22;21132;48.308;14.274;2022-12-19T18:01:48;5.20;57.20
34927;DHT22;21132;48.308;14.274;2022-12-19T18:04:18;5.20;57.20
34927;DHT22;21132;48.308;14.274;2022-12-19T18:06:46;5.20;57.20
34927;DHT22;21132;48.308;14.274;2022-12-19T18:09:20;5.20;57.30
34927;DHT22;21132;48.308;14.274;2022-12-19T18:11:50;5.20;57.30
34927;DHT22;21132;48.308;14.274;2022-12-19T18:14:19;5.10;57.30
34927;DHT22;21132;48.308;14.274;2022-12-19T18:16:46;5.10;57.20
34927;DHT22;21132;48.308;14.274;2022-12-19T18:19:19;5.10;57.30
34927;DHT22;21132;48.308;14.274;2022-12-19T18:21:46;5.10;57.30
34927;DHT22;21132;48.308;14.274;2022-12-19T18:24:12;5.00;57.50
34927;DHT22;21132;48.308;14.274;2022-12-19T18:26:41;5.00;57.50
34927;DHT22;21132;48.308;14.274;2022-12-19T18:29:07;5.00;57.50
34927;DHT22;21132;48.308;14.274;2022-12-19T18:31:33;5.00;57.60
34927;DHT22;21132;48.308;14.274;2022-12-19T18:34:05;5.00;57.60
34927;DHT22;21132;48.308;14.274;2022-12-19T18:36:39;5.00;57.60
34927;DHT22;21132;48.308;14.274;2022-12-19T18:39:27;4.90;57.60
34927;DHT22;21132;48.308;14.274;2022-12-19T18:41:58;4.90;57.70
34927;DHT22;21132;48.308;14.274;2022-12-19T18:44:24;4.90;57.70
34927;DHT22;21132;48.308;14.274;2022-12-19T18:46:51;4.90;57.70
34927;DHT22;21132;48.308;14.274;2022-12-19T18:49:18;4.90;57.80
34927;DHT22;21132;48.308;14.274;2022-12-19T18:51:44;4.90;57.80
34927;DHT22;21132;48.308;14.274;2022-12-19T18:54:14;4.90;57.80
34927;DHT22;21132;48.308;14.274;2022-12-19T18:56:42;4.90;57.90
34927;DHT22;21132;48.308;14.274;2022-12-19T18:59:08;5.00;58.00
34927;DHT22;21132;48.308;14.274;2022-12-19T19:01:44;5.00;58.10
34927;DHT22;21132;48.308;14.274;2022-12-19T19:04:11;4.90;58.10
34927;DHT22;21132;48.308;14.274;2022-12-19T19:06:40;5.00;58.20
34927;DHT22;21132;48.308;14.274;2022-12-19T19:09:14;5.00;58.20
34927;DHT22;21132;48.308;14.274;2022-12-19T19:11:42;5.00;58.30
34927;DHT22;21132;48.308;14.274;2022-12-19T19:14:13;5.00;58.30
34927;DHT22;21132;48.308;14.274;2022-12-19T19:16:41;5.00;58.20
34927;DHT22;21132;48.308;14.274;2022-12-19T19:19:17;5.00;58.30
34927;DHT22;21132;48.308;14.274;2022-12-19T19:21:44;5.00;58.40
34927;DHT22;21132;48.308;14.274;2022-12-19T19:24:17;5.00;58.50
34927;DHT22;21132;48.308;14.274;2022-12-19T19:26:48;5.00;58.50
34927;DHT22;21132;48.308;14.274;2022-12-19T19:29:14;5.00;58.50
34927;DHT22;21132;48.308;14.274;2022-12-19T19:31:44;5.00;58.50
34927;DHT22;21132;48.308;14.274;2022-12-19T19:34:28;5.00;58.50
34927;DHT22;21132;48.308;14.274;2022-12-19T19:36:58;5.00;58.60
34927;DHT22;21132;48.308;14.274;2022-12-19T19:39:28;5.00;58.60
34927;DHT22;21132;48.308;14.274;2022-12-19T19:41:59;5.00;58.60
34927;DHT22;21132;48.308;14.274;2022-12-19T19:44:28;5.00;58.60
34927;DHT22;21132;48.308;14.274;2022-12-19T19:46:56;5.00;58.60
34927;DHT22;21132;48.308;14.274;2022-12-19T19:49:24;5.10;58.60
34927;DHT22;21132;48.308;14.274;2022-12-19T19:51:51;5.10;58.60
34927;DHT22;21132;48.308;14.274;2022-12-19T19:54:21;5.10;58.60
34927;DHT22;21132;48.308;14.274;2022-12-19T19:56:56;5.10;58.60
34927;DHT22;21132;48.308;14.274;2022-12-19T19:59:25;5.10;58.50
34927;DHT22;21132;48.308;14.274;2022-12-19T20:01:56;5.10;58.50
34927;DHT22;21132;48.308;14.274;2022-12-19T20:04:25;5.10;58.40
34927;DHT22;21132;48.308;14.274;2022-12-19T20:06:51;5.10;58.40
34927;DHT22;21132;48.308;14.274;2022-12-19T20:09:22;5.10;58.40
34927;DHT22;21132;48.308;14.274;2022-12-19T20:11:57;5.10;58.40
34927;DHT22;21132;48.308;14.274;2022-12-19T20:14:24;5.10;58.50
34927;DHT22;21132;48.308;14.274;2022-12-19T20:16:53;5.00;58.50
34927;DHT22;21132;48.308;14.274;2022-12-19T20:19:19;5.00;58.50
34927;DHT22;21132;48.308;14.274;2022-12-19T20:21:47;5.00;58.50
34927;DHT22;21132;48.308;14.274;2022-12-19T20:24:13;5.00;58.60
34927;DHT22;21132;48.308;14.274;2022-12-19T20:26:45;5.00;58.60
34927;DHT22;21132;48.308;14.274;2022-12-19T20:29:15;5.00;58.60
34927;DHT22;21132;48.308;14.274;2022-12-19T20:31:59;5.00;58.70
34927;DHT22;21132;48.308;14.274;2022-12-19T20:34:32;4.90;58.70
34927;DHT22;21132;48.308;14.274;2022-12-19T20:36:59;5.00;58.70
34927;DHT22;21132;48.308;14.274;2022-12-19T20:39:25;5.00;58.70
34927;DHT22;21132;48.308;14.274;2022-12-19T20:41:53;4.90;58.80
34927;DHT22;21132;48.308;14.274;2022-12-19T20:44:28;4.90;58.80
34927;DHT22;21132;48.308;14.274;2022-12-19T20:46:57;4.90;58.80
34927;DHT22;21132;48.308;14.274;2022-12-19T20:49:24;5.00;58.80
34927;DHT22;21132;48.308;14.274;2022-12-19T20:51:52;4.90;58.80
34927;DHT22;21132;48.308;14.274;2022-12-19T20:54:20;4.90;58.80
34927;DHT22;21132;48.308;14.274;2022-12-19T20:56:48;4.90;58.80
34927;DHT22;21132;48.308;14.274;2022-12-19T20:59:13;4.90;58.80
34927;DHT22;21132;48.308;14.274;2022-12-19T21:01:39;4.90;58.80
34927;DHT22;21132;48.308;14.274;2022-12-19T21:04:08;4.90;58.80
34927;DHT22;21132;48.308;14.274;2022-12-19T21:06:36;4.90;58.80
34927;DHT22;21132;48.308;14.274;2022-12-19T21:09:05;4.80;58.80
34927;DHT22;21132;48.308;14.274;2022-12-19T21:11:33;4.80;58.80
34927;DHT22;21132;48.308;14.274;2022-12-19T21:14:01;4.80;58.90
34927;DHT22;21132;48.308;14.274;2022-12-19T21:16:27;4.80;59.00
34927;DHT22;21132;48.308;14.274;2022-12-19T21:18:56;4.70;59.00
34927;DHT22;21132;48.308;14.274;2022-12-19T21:21:24;4.70;59.10
34927;DHT22;21132;48.308;14.274;2022-12-19T21:23:51;4.60;59.20
34927;DHT22;21132;48.308;14.274;2022-12-19T21:26:20;4.60;59.30
34927;DHT22;21132;48.308;14.274;2022-12-19T21:28:46;4.60;59.40
34927;DHT22;21132;48.308;14.274;2022-12-19T21:31:21;4.60;59.40
34927;DHT22;21132;48.308;14.274;2022-12-19T21:33:48;4.50;59.50
34927;DHT22;21132;48.308;14.274;2022-12-19T21:36:18;4.50;59.50
34927;DHT22;21132;48.308;14.274;2022-12-19T21:38:50;4.50;59.50
34927;DHT22;21132;48.308;14.274;2022-12-19T21:41:17;4.40;59.60
34927;DHT22;21132;48.308;14.274;2022-12-19T21:43:53;4.40;59.70
34927;DHT22;21132;48.308;14.274;2022-12-19T21:46:21;4.40;59.90
34927;DHT22;21132;48.308;14.274;2022-12-19T21:48:49;4.40;60.00
34927;DHT22;21132;48.308;14.274;2022-12-19T21:51:17;4.30;60.00
34927;DHT22;21132;48.308;14.274;2022-12-19T21:53:44;4.30;60.20
34927;DHT22;21132;48.308;14.274;2022-12-19T21:56:28;4.30;60.30
34927;DHT22;21132;48.308;14.274;2022-12-19T21:59:00;4.30;60.50
34927;DHT22;21132;48.308;14.274;2022-12-19T22:01:26;4.30;60.30
34927;DHT22;21132;48.308;14.274;2022-12-19T22:04:06;4.30;60.40
34927;DHT22;21132;48.308;14.274;2022-12-19T22:06:34;4.30;60.60
34927;DHT22;21132;48.308;14.274;2022-12-19T22:09:02;4.20;60.60
34927;DHT22;21132;48.308;14.274;2022-12-19T22:11:29;4.20;60.80
34927;DHT22;21132;48.308;14.274;2022-12-19T22:13:58;4.20;60.90
34927;DHT22;21132;48.308;14.274;2022-12-19T22:16:24;4.10;61.00
34927;DHT22;21132;48.308;14.274;2022-12-19T22:18:51;4.10;61.10
34927;DHT22;21132;48.308;14.274;2022-12-19T22:21:18;4.10;61.30
34927;DHT22;21132;48.308;14.274;2022-12-19T22:23:44;4.00;61.40
34927;DHT22;21132;48.308;14.274;2022-12-19T22:26:13;4.00;61.40
34927;DHT22;21132;48.308;14.274;2022-12-19T22:28:46;4.00;61.50
34927;DHT22;21132;48.308;14.274;2022-12-19T22:31:26;4.00;61.50
34927;DHT22;21132;48.308;14.274;2022-12-19T22:34:17;3.90;61.50
34927;DHT22;21132;48.308;14.274;2022-12-19T22:36:42;3.90;61.50
34927;DHT22;21132;48.308;14.274;2022-12-19T22:39:16;3.90;61.50
34927;DHT22;21132;48.308;14.274;2022-12-19T22:41:43;3.80;61.60
34927;DHT22;21132;48.308;14.274;2022-12-19T22:44:16;3.80;61.60
34927;DHT22;21132;48.308;14.274;2022-12-19T22:46:44;3.80;61.80
34927;DHT22;21132;48.308;14.274;2022-12-19T22:49:11;3.80;61.70
34927;DHT22;21132;48.308;14.274;2022-12-19T22:51:38;3.80;61.80
34927;DHT22;21132;48.308;14.274;2022-12-19T22:54:09;3.80;61.90
34927;DHT22;21132;48.308;14.274;2022-12-19T22:56:35;3.80;61.90
34927;DHT22;21132;48.308;14.274;2022-12-19T22:59:04;3.80;61.90
34927;DHT22;21132;48.308;14.274;2022-12-19T23:01:37;3.70;61.80
34927;DHT22;21132;48.308;14.274;2022-12-19T23:04:05;3.70;61.70
34927;DHT22;21132;48.308;14.274;2022-12-19T23:06:33;3.70;61.80
34927;DHT22;21132;48.308;14.274;2022-12-19T23:08:59;3.70;61.80
34927;DHT22;21132;48.308;14.274;2022-12-19T23:11:32;3.70;61.80
34927;DHT22;21132;48.308;14.274;2022-12-19T23:14:00;3.70;61.70
34927;DHT22;21132;48.308;14.274;2022-12-19T23:16:29;3.70;61.70
34927;DHT22;21132;48.308;14.274;2022-12-19T23:18:57;3.60;61.60
34927;DHT22;21132;48.308;14.274;2022-12-19T23:21:24;3.60;61.60
34927;DHT22;21132;48.308;14.274;2022-12-19T23:23:52;3.60;61.60
34927;DHT22;21132;48.308;14.274;2022-12-19T23:26:27;3.60;61.70
34927;DHT22;21132;48.308;14.274;2022-12-19T23:28:58;3.60;61.80
34927;DHT22;21132;48.308;14.274;2022-12-19T23:31:25;3.60;61.90
34927;DHT22;21132;48.308;14.274;2022-12-19T23:33:54;3.60;61.90
34927;DHT22;21132;48.308;14.274;2022-12-19T23:36:22;3.60;62.00
34927;DHT22;21132;48.308;14.274;2022-12-19T23:38:52;3.70;62.10
34927;DHT22;21132;48.308;14.274;2022-12-19T23:41:20;3.70;62.20
34927;DHT22;21132;48.308;14.274;2022-12-19T23:43:46;3.70;62.20
34927;DHT22;21132;48.308;14.274;2022-12-19T23:46:18;3.80;62.30
34927;DHT22;21132;48.308;14.274;2022-12-19T23:48:44;3.80;62.30
34927;DHT22;21132;48.308;14.274;2022-12-19T23:51:21;3.90;62.20
34927;DHT22;21132;48.308;14.274;2022-12-19T23:53:49;3.90;62.00
34927;DHT22;21132;48.308;14.274;2022-12-19T23:56:24;3.90;61.80
34927;DHT22;21132;48.308;14.274;2022-12-19T23:58:50;4.00;61.80
